createdAt,value
2019-06-01T00:01:50.614Z,10.48
2019-06-01T00:04:20.049Z,10.23
2019-06-01T00:06:49.560Z,12.98
2019-06-01T00:09:19.533Z,10.55
2019-06-01T00:11:49.664Z,11.03
2019-06-01T00:14:19.210Z,11.53
2019-06-01T00:16:50.269Z,9.93
2019-06-01T00:19:20.011Z,11.08
2019-06-01T00:21:50.013Z,13.22
2019-06-01T00:24:19.911Z,10.48
2019-06-01T00:26:49.916Z,11.85
2019-06-01T00:29:19.510Z,13.50
2019-06-01T00:31:49.905Z,9.80
2019-06-01T00:34:19.477Z,14.33
2019-06-01T00:36:49.658Z,13.40
2019-06-01T00:39:19.261Z,9.75
2019-06-01T00:41:50.147Z,14.85
2019-06-01T00:44:19.732Z,10.82
2019-06-01T00:46:49.220Z,17.70
2019-06-01T00:49:18.746Z,13.68
2019-06-01T00:51:49.097Z,12.65
2019-06-01T00:54:18.730Z,11.50
2019-06-01T00:56:49.591Z,12.80
2019-06-01T00:59:19.273Z,10.40
2019-06-01T01:01:50.008Z,11.18
2019-06-01T01:04:19.693Z,12.40
2019-06-01T01:06:49.589Z,12.68
2019-06-01T01:09:20.409Z,13.80
2019-06-01T01:11:51.121Z,16.80
2019-06-01T01:14:20.687Z,15.05
2019-06-01T01:16:51.661Z,11.65
2019-06-01T01:19:21.129Z,13.62
2019-06-01T01:21:52.429Z,12.90
2019-06-01T01:24:21.923Z,13.75
2019-06-01T01:26:52.521Z,12.30
2019-06-01T01:29:22.095Z,13.28
2019-06-01T01:31:51.561Z,11.83
2019-06-01T01:34:20.988Z,14.18
2019-06-01T01:36:52.557Z,13.43
2019-06-01T01:39:21.539Z,14.10
2019-06-01T01:41:52.090Z,11.93
2019-06-01T01:44:21.706Z,16.10
2019-06-01T01:46:51.152Z,13.72
2019-06-01T01:49:20.647Z,14.50
2019-06-01T01:51:50.414Z,12.78
2019-06-01T01:54:20.011Z,12.65
2019-06-01T01:56:49.954Z,14.28
2019-06-01T01:59:19.641Z,10.68
2019-06-01T02:01:50.311Z,12.73
2019-06-01T02:04:19.803Z,11.68
2019-06-01T02:06:49.325Z,14.95
2019-06-01T02:09:18.775Z,11.60
2019-06-01T02:11:48.239Z,12.73
2019-06-01T02:14:17.765Z,16.05
2019-06-01T02:16:47.286Z,16.05
2019-06-01T02:19:16.755Z,13.30
2019-06-01T02:21:46.297Z,14.13
2019-06-01T02:24:17.275Z,13.30
2019-06-01T02:26:46.759Z,11.83
2019-06-01T02:29:16.279Z,14.78
2019-06-01T02:31:45.790Z,13.55
2019-06-01T02:34:15.615Z,13.05
2019-06-01T02:36:45.122Z,14.58
2019-06-01T02:39:15.553Z,13.03
2019-06-01T02:41:45.046Z,13.05
2019-06-01T02:44:14.506Z,13.72
2019-06-01T02:46:44.111Z,12.93
2019-06-01T02:49:13.606Z,15.75
2019-06-01T02:51:43.054Z,13.08
2019-06-01T02:54:12.571Z,15.58
2019-06-01T02:56:42.056Z,13.40
2019-06-01T02:59:11.510Z,14.47
2019-06-01T03:01:56.029Z,12.37
2019-06-01T03:04:12.332Z,12.65
2019-06-01T03:06:45.613Z,13.83
2019-06-01T03:09:15.556Z,15.13
2019-06-01T03:11:46.335Z,14.25
2019-06-01T03:14:17.276Z,14.60
2019-06-01T03:16:48.848Z,16.65
2019-06-01T03:19:20.810Z,14.28
2019-06-01T03:21:51.833Z,15.00
2019-06-01T03:24:25.711Z,15.23
2019-06-01T03:26:56.053Z,13.78
2019-06-01T03:29:28.737Z,14.00
2019-06-01T03:32:22.049Z,16.90
2019-06-01T03:34:29.369Z,16.17
2019-06-01T03:37:00.840Z,21.23
2019-06-01T03:39:31.693Z,20.88
2019-06-01T03:42:01.158Z,17.12
2019-06-01T03:44:30.656Z,17.50
2019-06-01T03:47:01.394Z,18.60
2019-06-01T03:49:31.045Z,14.47
2019-06-01T03:52:00.655Z,14.75
2019-06-01T03:54:30.239Z,15.60
2019-06-01T03:57:00.821Z,13.28
2019-06-01T03:59:30.369Z,13.10
2019-06-01T04:02:00.843Z,21.25
2019-06-01T04:04:30.405Z,13.72
2019-06-01T04:07:01.253Z,16.87
2019-06-01T04:09:30.747Z,13.30
2019-06-01T04:12:01.366Z,16.00
2019-06-01T04:14:30.873Z,18.25
2019-06-01T04:17:01.883Z,20.17
2019-06-01T04:19:31.677Z,18.95
2019-06-01T04:22:01.906Z,17.23
2019-06-01T04:24:31.551Z,20.10
2019-06-01T04:27:02.078Z,21.27
2019-06-01T04:29:31.681Z,17.57
2019-06-01T04:32:02.398Z,18.02
2019-06-01T04:34:35.188Z,16.45
2019-06-01T04:37:03.605Z,19.82
2019-06-01T04:39:33.443Z,17.37
2019-06-01T04:42:03.488Z,17.00
2019-06-01T04:44:34.449Z,17.35
2019-06-01T04:47:04.281Z,16.77
2019-06-01T04:49:33.894Z,14.65
2019-06-01T04:52:04.575Z,14.35
2019-06-01T04:54:34.142Z,17.07
2019-06-01T04:57:04.668Z,13.98
2019-06-01T04:59:37.775Z,14.30
2019-06-01T05:02:05.684Z,15.75
2019-06-01T05:04:36.530Z,13.90
2019-06-01T05:07:07.154Z,18.02
2019-06-01T05:09:36.669Z,16.80
2019-06-01T05:12:07.395Z,16.85
2019-06-01T05:14:36.944Z,14.35
2019-06-01T05:17:07.813Z,18.70
2019-06-01T05:19:37.452Z,15.35
2019-06-01T05:22:06.976Z,18.17
2019-06-01T05:24:36.466Z,14.83
2019-06-01T05:27:06.852Z,15.60
2019-06-01T05:29:36.438Z,13.72
2019-06-01T05:32:08.358Z,13.50
2019-06-01T05:34:39.760Z,12.75
2019-06-01T05:37:10.777Z,14.70
2019-06-01T05:39:40.329Z,13.55
2019-06-01T05:42:10.622Z,12.65
2019-06-01T05:44:40.142Z,14.20
2019-06-01T05:47:10.060Z,13.15
2019-06-01T05:49:39.500Z,13.38
2019-06-01T05:52:08.944Z,13.05
2019-06-01T05:54:38.427Z,13.13
2019-06-01T05:57:07.918Z,11.40
2019-06-01T05:59:37.370Z,12.05
2019-06-01T06:02:06.797Z,10.20
2019-06-01T06:04:36.298Z,10.80
2019-06-01T06:07:05.793Z,12.78
2019-06-01T06:09:35.261Z,10.43
2019-06-01T06:12:04.748Z,8.88
2019-06-01T06:14:34.176Z,10.15
2019-06-01T06:17:03.655Z,8.08
2019-06-01T06:19:33.248Z,9.05
2019-06-01T06:22:02.678Z,8.85
2019-06-01T06:24:32.102Z,7.78
2019-06-01T06:27:01.552Z,6.65
2019-06-01T06:29:31.005Z,8.23
2019-06-01T06:32:00.432Z,6.22
2019-06-01T06:34:29.894Z,8.00
2019-06-01T06:36:59.334Z,6.78
2019-06-01T06:39:28.819Z,7.62
2019-06-01T06:41:58.297Z,7.37
2019-06-01T06:44:27.736Z,7.75
2019-06-01T06:46:57.157Z,6.83
2019-06-01T06:49:26.640Z,6.10
2019-06-01T06:51:56.116Z,9.28
2019-06-01T06:54:26.040Z,11.00
2019-06-01T06:56:55.708Z,7.05
2019-06-01T06:59:25.190Z,7.65
2019-06-01T07:01:54.646Z,5.70
2019-06-01T07:04:25.201Z,6.10
2019-06-01T07:06:54.734Z,5.03
2019-06-01T07:09:24.194Z,6.35
2019-06-01T07:11:53.626Z,8.40
2019-06-01T07:14:23.491Z,6.55
2019-06-01T07:16:53.100Z,6.75
2019-06-01T07:19:23.755Z,6.78
2019-06-01T07:21:54.650Z,6.92
2019-06-01T07:24:26.087Z,6.08
2019-06-01T07:26:55.702Z,6.10
2019-06-01T07:29:28.964Z,5.97
2019-06-01T07:31:58.550Z,7.17
2019-06-01T07:34:37.801Z,8.10
2019-06-01T07:36:59.335Z,4.72
2019-06-01T07:39:29.043Z,5.80
2019-06-01T07:41:58.665Z,5.92
2019-06-01T07:44:29.259Z,7.45
2019-06-01T07:46:58.735Z,6.78
2019-06-01T07:49:29.144Z,7.37
2019-06-01T07:51:58.793Z,6.37
2019-06-01T07:54:29.757Z,5.25
2019-06-01T07:56:59.190Z,6.40
2019-06-01T07:59:30.319Z,6.05
2019-06-01T08:01:59.851Z,5.58
2019-06-01T08:04:31.761Z,5.78
2019-06-01T08:07:00.436Z,7.78
2019-06-01T08:09:29.841Z,6.70
2019-06-01T08:11:59.279Z,7.62
2019-06-01T08:14:28.721Z,5.35
2019-06-01T08:17:00.656Z,6.50
2019-06-01T08:19:30.206Z,5.50
2019-06-01T08:22:01.237Z,4.22
2019-06-01T08:24:30.800Z,6.97
2019-06-01T08:27:00.279Z,4.90
2019-06-01T08:29:30.766Z,5.00
2019-06-01T08:32:00.371Z,5.22
2019-06-01T08:34:30.965Z,4.33
2019-06-01T08:37:00.558Z,5.00
2019-06-01T08:39:31.390Z,4.97
2019-06-01T08:42:00.898Z,6.10
2019-06-01T08:44:31.620Z,4.75
2019-06-01T08:47:01.197Z,4.72
2019-06-01T08:49:32.064Z,3.83
2019-06-01T08:52:01.972Z,3.42
2019-06-01T08:54:32.299Z,4.05
2019-06-01T08:57:01.905Z,4.72
2019-06-01T08:59:32.576Z,5.05
2019-06-01T09:02:02.164Z,5.12
2019-06-01T09:04:32.730Z,3.90
2019-06-01T09:07:02.196Z,7.35
2019-06-01T09:09:31.664Z,3.70
2019-06-01T09:12:01.105Z,5.33
2019-06-01T09:14:31.378Z,3.87
2019-06-01T09:17:00.820Z,8.38
2019-06-01T09:19:31.436Z,4.12
2019-06-01T09:22:01.412Z,5.50
2019-06-01T09:24:31.942Z,5.80
2019-06-01T09:27:01.483Z,5.25
2019-06-01T09:29:32.121Z,5.22
2019-06-01T09:32:01.791Z,4.60
2019-06-01T09:34:32.382Z,4.22
2019-06-01T09:37:02.006Z,6.22
2019-06-01T09:39:31.432Z,4.33
2019-06-01T09:42:00.929Z,5.08
2019-06-01T09:44:31.917Z,3.60
2019-06-01T09:47:01.574Z,5.30
2019-06-01T09:49:32.649Z,4.20
2019-06-01T09:52:02.413Z,4.22
2019-06-01T09:54:33.193Z,4.67
2019-06-01T09:57:03.180Z,9.25
2019-06-01T09:59:33.790Z,4.20
2019-06-01T10:02:03.523Z,3.95
2019-06-01T10:04:34.319Z,4.78
2019-06-01T10:07:03.801Z,5.80
2019-06-01T10:09:33.632Z,6.78
2019-06-01T10:12:03.110Z,5.78
2019-06-01T10:14:32.539Z,4.33
2019-06-01T10:17:02.014Z,5.53
2019-06-01T10:19:32.515Z,3.52
2019-06-01T10:22:02.066Z,6.92
2019-06-01T10:24:31.520Z,4.30
2019-06-01T10:27:00.990Z,3.90
2019-06-01T10:29:30.549Z,4.12
2019-06-01T10:31:59.936Z,3.75
2019-06-01T10:34:29.422Z,4.22
2019-06-01T10:36:58.848Z,4.78
2019-06-01T10:39:28.266Z,4.03
2019-06-01T10:41:57.746Z,4.33
2019-06-01T10:44:27.202Z,4.40
2019-06-01T10:46:56.644Z,4.22
2019-06-01T10:49:26.079Z,4.47
2019-06-01T10:51:55.586Z,4.33
2019-06-01T10:54:25.029Z,4.50
2019-06-01T10:56:54.493Z,3.40
2019-06-01T10:59:23.995Z,5.10
2019-06-01T11:01:53.442Z,4.33
2019-06-01T11:04:22.882Z,4.17
2019-06-01T11:06:52.348Z,5.25
2019-06-01T11:09:21.817Z,4.03
2019-06-01T11:11:51.265Z,3.77
2019-06-01T11:14:20.707Z,4.25
2019-06-01T11:16:56.005Z,3.70
2019-06-01T11:19:21.251Z,4.20
2019-06-01T11:21:50.686Z,5.53
2019-06-01T11:24:20.136Z,5.15
2019-06-01T11:26:49.632Z,6.80
2019-06-01T11:29:19.087Z,4.12
2019-06-01T11:31:48.511Z,4.42
2019-06-01T11:34:19.007Z,3.35
2019-06-01T11:37:04.419Z,5.35
2019-06-01T11:39:19.506Z,4.95
2019-06-01T11:41:48.961Z,4.05
2019-06-01T11:44:18.438Z,3.00
2019-06-01T11:46:47.928Z,5.78
2019-06-01T11:49:20.590Z,5.12
2019-06-01T11:51:48.457Z,4.45
2019-06-01T11:54:17.948Z,4.75
2019-06-01T11:56:47.690Z,3.37
2019-06-01T11:59:17.176Z,3.85
2019-06-01T12:01:46.741Z,3.85
2019-06-01T12:04:16.159Z,4.03
2019-06-01T12:06:46.296Z,3.12
2019-06-01T12:09:15.802Z,3.20
2019-06-01T12:11:46.407Z,3.50
2019-06-01T12:14:16.033Z,2.98
2019-06-01T12:16:46.886Z,3.67
2019-06-01T12:19:16.349Z,4.72
2019-06-01T12:21:47.263Z,4.87
2019-06-01T12:24:18.220Z,3.52
2019-06-01T12:26:49.661Z,3.22
2019-06-01T12:29:19.108Z,3.30
2019-06-01T12:31:48.556Z,5.33
2019-06-01T12:34:18.031Z,3.75
2019-06-01T12:36:48.487Z,2.87
2019-06-01T12:39:18.393Z,4.87
2019-06-01T12:41:47.926Z,3.55
2019-06-01T12:44:17.311Z,5.28
2019-06-01T12:46:47.044Z,3.30
2019-06-01T12:49:17.024Z,3.00
2019-06-01T12:51:46.906Z,2.90
2019-06-01T12:54:17.552Z,3.20
2019-06-01T12:56:49.729Z,6.03
2019-06-01T12:59:19.198Z,2.60
2019-06-01T13:01:49.309Z,4.12
2019-06-01T13:04:18.923Z,2.72
2019-06-01T13:06:51.154Z,3.33
2019-06-01T13:09:19.468Z,5.72
2019-06-01T13:11:49.477Z,3.42
2019-06-01T13:14:19.038Z,3.05
2019-06-01T13:17:02.435Z,2.72
2019-06-01T13:19:19.572Z,3.17
2019-06-01T13:21:50.139Z,4.47
2019-06-01T13:24:20.153Z,3.08
2019-06-01T13:26:50.142Z,3.15
2019-06-01T13:29:19.614Z,3.30
2019-06-01T13:31:50.344Z,2.92
2019-06-01T13:34:19.911Z,3.12
2019-06-01T13:36:49.372Z,3.83
2019-06-01T13:39:18.779Z,4.90
2019-06-01T13:41:49.532Z,4.60
2019-06-01T13:44:19.056Z,4.87
2019-06-01T13:46:49.447Z,3.33
2019-06-01T13:49:18.971Z,3.45
2019-06-01T13:51:48.393Z,3.42
2019-06-01T13:54:18.282Z,6.12
2019-06-01T13:56:48.818Z,4.03
2019-06-01T13:59:18.505Z,4.87
2019-06-01T14:01:48.838Z,4.22
2019-06-01T14:04:20.101Z,5.53
2019-06-01T14:06:49.577Z,4.20
2019-06-01T14:09:21.727Z,5.03
2019-06-01T14:11:51.202Z,3.98
2019-06-01T14:14:20.847Z,6.00
2019-06-01T14:16:51.618Z,6.05
2019-06-01T14:19:21.231Z,5.05
2019-06-01T14:21:52.155Z,3.85
2019-06-01T14:24:21.827Z,4.28
2019-06-01T14:26:52.348Z,4.70
2019-06-01T14:29:21.923Z,4.83
2019-06-01T14:31:53.500Z,3.95
2019-06-01T14:34:22.529Z,3.55
2019-06-01T14:36:52.705Z,4.22
2019-06-01T14:39:22.274Z,4.10
2019-06-01T14:41:51.718Z,3.47
2019-06-01T14:44:21.153Z,3.87
2019-06-01T14:47:01.326Z,3.33
2019-06-01T14:49:21.737Z,4.45
2019-06-01T14:51:51.550Z,3.75
2019-06-01T14:54:21.042Z,3.55
2019-06-01T14:56:51.703Z,5.22
2019-06-01T14:59:21.205Z,4.53
2019-06-01T15:01:50.680Z,6.10
2019-06-01T15:04:20.167Z,4.65
2019-06-01T15:06:50.206Z,4.58
2019-06-01T15:09:20.116Z,5.03
2019-06-01T15:11:50.631Z,6.95
2019-06-01T15:14:20.648Z,4.87
2019-06-01T15:16:51.538Z,3.17
2019-06-01T15:19:21.173Z,4.08
2019-06-01T15:21:51.970Z,3.55
2019-06-01T15:24:21.768Z,3.08
2019-06-01T15:26:52.296Z,4.25
2019-06-01T15:29:21.926Z,3.65
2019-06-01T15:31:51.372Z,4.65
2019-06-01T15:34:20.802Z,6.08
2019-06-01T15:36:51.458Z,4.28
2019-06-01T15:39:24.809Z,3.02
2019-06-01T15:41:53.030Z,5.85
2019-06-01T15:44:22.661Z,3.08
2019-06-01T15:46:53.507Z,5.47
2019-06-01T15:49:23.173Z,3.12
2019-06-01T15:51:53.588Z,3.92
2019-06-01T15:54:23.170Z,2.95
2019-06-01T15:56:52.611Z,2.58
2019-06-01T15:59:22.082Z,3.65
2019-06-01T16:01:52.896Z,2.27
2019-06-01T16:04:22.654Z,3.65
2019-06-01T16:06:53.045Z,3.17
2019-06-01T16:09:22.576Z,2.92
2019-06-01T16:11:53.372Z,2.67
2019-06-01T16:14:22.884Z,2.50
2019-06-01T16:16:53.716Z,2.40
2019-06-01T16:19:23.428Z,4.20
2019-06-01T16:21:53.715Z,3.72
2019-06-01T16:24:23.258Z,3.40
2019-06-01T16:26:52.801Z,2.83
2019-06-01T16:29:22.374Z,3.92
2019-06-01T16:31:51.888Z,2.87
2019-06-01T16:34:21.411Z,2.98
2019-06-01T16:36:50.964Z,2.47
2019-06-01T16:39:22.969Z,3.12
2019-06-01T16:41:52.560Z,5.78
2019-06-01T16:44:22.096Z,4.20
2019-06-01T16:46:51.665Z,5.28
2019-06-01T16:49:21.282Z,1.98
2019-06-01T16:51:58.697Z,4.62
2019-06-01T16:54:27.435Z,2.87
2019-06-01T16:56:58.100Z,3.25
2019-06-01T16:59:27.725Z,5.60
2019-06-01T17:01:58.829Z,6.08
2019-06-01T17:04:28.544Z,5.05
2019-06-01T17:06:58.650Z,5.35
2019-06-01T17:09:28.253Z,2.85
2019-06-01T17:12:00.809Z,3.35
2019-06-01T17:14:32.971Z,3.35
2019-06-01T17:17:03.233Z,3.35
2019-06-01T17:19:34.881Z,3.10
2019-06-01T17:22:05.626Z,4.05
2019-06-01T17:24:36.558Z,4.40
2019-06-01T17:27:08.307Z,4.75
2019-06-01T17:29:39.106Z,4.28
2019-06-01T17:32:22.962Z,4.15
2019-06-01T17:34:40.562Z,5.37
2019-06-01T17:37:10.035Z,4.20
2019-06-01T17:39:40.707Z,3.02
2019-06-01T17:42:10.468Z,3.58
2019-06-01T17:44:39.983Z,5.22
2019-06-01T17:47:09.959Z,3.75
2019-06-01T17:49:39.559Z,3.10
2019-06-01T17:52:09.757Z,4.47
2019-06-01T17:54:39.436Z,4.80
2019-06-01T17:57:09.293Z,5.40
2019-06-01T17:59:38.795Z,6.08
2019-06-01T18:02:09.942Z,4.15
2019-06-01T18:04:39.513Z,7.25
2019-06-01T18:07:10.002Z,3.67
2019-06-01T18:09:39.553Z,4.10
2019-06-01T18:12:10.114Z,4.78
2019-06-01T18:14:39.702Z,4.97
2019-06-01T18:17:10.249Z,3.90
2019-06-01T18:19:40.044Z,6.55
2019-06-01T18:22:10.715Z,4.30
2019-06-01T18:24:40.519Z,4.03
2019-06-01T18:27:10.657Z,4.00
2019-06-01T18:29:48.081Z,4.35
2019-06-01T18:32:11.655Z,6.00
2019-06-01T18:34:42.186Z,2.95
2019-06-01T18:37:13.507Z,5.70
2019-06-01T18:39:47.463Z,6.20
2019-06-01T18:42:15.585Z,4.35
2019-06-01T18:44:46.029Z,4.47
2019-06-01T18:47:31.271Z,6.78
2019-06-01T18:49:47.333Z,7.70
2019-06-01T18:52:16.891Z,4.60
2019-06-01T18:54:46.882Z,8.65
2019-06-01T18:57:21.126Z,6.20
2019-06-01T18:59:48.637Z,5.40
2019-06-01T19:02:27.958Z,6.20
2019-06-01T19:04:57.480Z,6.62
2019-06-01T19:07:27.016Z,5.45
2019-06-01T19:09:56.502Z,7.00
2019-06-01T19:12:25.953Z,4.80
2019-06-01T19:14:57.775Z,5.83
2019-06-01T19:17:27.410Z,5.25
2019-06-01T19:20:17.389Z,5.25
2019-06-01T19:23:38.705Z,7.30
2019-06-01T19:26:14.865Z,6.15
2019-06-01T19:28:55.986Z,9.95
2019-06-01T19:31:25.538Z,7.97
2019-06-01T19:33:57.412Z,10.45
2019-06-01T19:36:30.574Z,8.60
2019-06-01T19:39:11.137Z,8.78
2019-06-01T19:41:44.777Z,7.70
2019-06-01T19:44:13.528Z,13.40
2019-06-01T19:46:43.077Z,9.68
2019-06-01T19:49:13.345Z,15.50
2019-06-01T19:51:43.782Z,7.00
2019-06-01T19:54:13.288Z,9.73
2019-06-01T19:56:43.809Z,8.83
2019-06-01T19:59:13.852Z,9.73
2019-06-01T20:01:43.406Z,10.65
2019-06-01T20:04:12.973Z,11.80
2019-06-01T20:06:42.566Z,8.98
2019-06-01T20:09:13.010Z,9.10
2019-06-01T20:11:42.795Z,7.60
2019-06-01T20:14:12.412Z,8.78
2019-06-01T20:16:41.922Z,9.45
2019-06-01T20:19:11.496Z,8.08
2019-06-01T20:21:40.979Z,8.30
2019-06-01T20:24:11.116Z,6.87
2019-06-01T20:26:48.723Z,12.47
2019-06-01T20:29:12.739Z,10.20
2019-06-01T20:31:42.998Z,9.00
2019-06-01T20:34:13.060Z,9.13
2019-06-01T20:36:43.694Z,8.40
2019-06-01T20:39:14.212Z,8.68
2019-06-01T20:41:43.792Z,8.03
2019-06-01T20:44:14.590Z,8.80
2019-06-01T20:46:44.248Z,8.70
2019-06-01T20:49:14.511Z,12.65
2019-06-01T20:51:44.054Z,8.40
2019-06-01T20:54:19.066Z,8.83
2019-06-01T20:56:48.855Z,9.95
2019-06-01T20:59:21.113Z,11.78
2019-06-01T21:01:50.046Z,10.10
2019-06-01T21:04:20.262Z,8.25
2019-06-01T21:06:49.951Z,9.98
2019-06-01T21:09:19.946Z,9.80
2019-06-01T21:11:49.703Z,12.93
2019-06-01T21:14:19.178Z,12.20
2019-06-01T21:16:48.649Z,9.40
2019-06-01T21:19:18.366Z,10.63
2019-06-01T21:21:48.161Z,9.70
2019-06-01T21:24:18.798Z,10.25
2019-06-01T21:26:48.572Z,10.53
2019-06-01T21:29:18.756Z,9.68
2019-06-01T21:31:48.252Z,13.18
2019-06-01T21:34:20.471Z,13.28
2019-06-01T21:36:49.138Z,10.50
2019-06-01T21:39:19.653Z,11.40
2019-06-01T21:41:49.391Z,13.08
2019-06-01T21:44:19.463Z,11.63
2019-06-01T21:46:49.355Z,10.35
2019-06-01T21:49:20.049Z,13.98
2019-06-01T21:51:52.899Z,12.88
2019-06-01T21:54:22.251Z,11.95
2019-06-01T21:56:52.279Z,10.35
2019-06-01T21:59:22.748Z,8.73
2019-06-01T22:01:52.502Z,9.83
2019-06-01T22:04:22.997Z,10.32
2019-06-01T22:06:52.872Z,12.35
2019-06-01T22:09:23.373Z,10.32
2019-06-01T22:11:52.951Z,10.65
2019-06-01T22:14:23.552Z,10.00
2019-06-01T22:16:53.081Z,11.00
2019-06-01T22:19:23.744Z,8.80
2019-06-01T22:21:53.886Z,8.30
2019-06-01T22:24:25.855Z,13.55
2019-06-01T22:26:55.718Z,8.43
2019-06-01T22:29:26.358Z,9.13
2019-06-01T22:31:55.928Z,8.35
2019-06-01T22:34:26.863Z,11.35
2019-06-01T22:36:56.479Z,12.23
2019-06-01T22:39:26.930Z,9.33
2019-06-01T22:41:56.585Z,13.00
2019-06-01T22:44:26.246Z,9.98
2019-06-01T22:46:55.685Z,7.92
2019-06-01T22:49:25.188Z,8.55
2019-06-01T22:51:54.714Z,10.28
2019-06-01T22:54:25.132Z,10.20
2019-06-01T22:56:54.694Z,10.48
2019-06-01T22:59:25.203Z,10.98
2019-06-01T23:01:54.803Z,10.25
2019-06-01T23:04:25.031Z,9.23
2019-06-01T23:06:54.692Z,8.65
2019-06-01T23:09:25.539Z,9.13
2019-06-01T23:11:55.209Z,7.20
2019-06-01T23:14:25.294Z,10.03
2019-06-01T23:16:54.908Z,10.45
2019-06-01T23:19:25.689Z,10.18
2019-06-01T23:21:55.374Z,9.80
2019-06-01T23:24:26.099Z,8.30
2019-06-01T23:26:55.675Z,8.38
2019-06-01T23:29:26.093Z,11.10
2019-06-01T23:31:55.683Z,11.40
2019-06-01T23:34:26.547Z,7.83
2019-06-01T23:36:56.158Z,10.88
2019-06-01T23:39:26.634Z,12.33
2019-06-01T23:41:56.278Z,11.30
2019-06-01T23:44:29.339Z,11.75
2019-06-01T23:46:56.946Z,10.55
2019-06-01T23:49:27.660Z,8.83
2019-06-01T23:52:01.720Z,11.00
2019-06-01T23:54:34.240Z,9.20
2019-06-01T23:57:13.378Z,10.43
2019-06-01T23:59:55.735Z,15.55
